Decoded Metar for KOTH (NORTH BEND in OR, USA) (IATA:OTH) | Meteo·Mobile Aviation Weather
aviador You're here:

KOTH Decoded Metar

NORTH BEND in OR, USA
Report Time2019-10-22 12:56:00
UTC Time2019-10-22 13:27:02
Flight Rules mvfr MVFR
Wind150° at 08 kt
W.Decomp.*RWY 13: 8.0 kt HW 0.3 kt RCW
RWY 22: 0.3 kt HW 8 kt LCW
Visibility9999 m
Phenomena:N/A
Clouds:Overcast 023 Hf
Expected CloudBase > 400 ft AGL from Temp-Dew spread
Ceiling2,300 ft
Temp14°C (ISA -1)
Dew Point13°C (94% RH)
AAT12.1°C
QNH1029 hPa
Density Alt-443 ft
Elevation13 ft
Report Wrong Elevation
Raw Report
KOTH 221256Z AUTO 15008KT 10SM OVC023 14/13 A3038 RMK AO2 SLP287
T01390128=

Extra information for KOTH:More info

Metar Taf Metar & Taf Last 4 Metars F.Rules Stats Wind Profile Meteogram Temp Stats Airport Information Weather charts Add Link Nearby VenuesMetar ALERT Operation Metar Decoded Social comments

AIRNAV info for KOTH